createdAt,value
2022-11-27T00:01:41.842Z,85.70
2022-11-27T00:04:12.028Z,85.67
2022-11-27T00:06:43.424Z,85.72
2022-11-27T00:09:18.041Z,85.73
2022-11-27T00:11:45.997Z,85.80
2022-11-27T00:14:19.104Z,85.93
2022-11-27T00:16:47.097Z,85.92
2022-11-27T00:19:15.057Z,85.96
2022-11-27T00:21:43.193Z,86.07
2022-11-27T00:24:14.702Z,86.12
2022-11-27T00:26:42.766Z,86.13
2022-11-27T00:29:10.466Z,86.19
2022-11-27T00:31:38.504Z,86.22
2022-11-27T00:34:10.261Z,86.23
2022-11-27T00:36:46.606Z,86.26
2022-11-27T00:39:19.316Z,86.23
2022-11-27T00:41:47.154Z,86.27
2022-11-27T00:44:14.952Z,86.29
2022-11-27T00:46:42.834Z,86.29
2022-11-27T00:49:13.620Z,86.28
2022-11-27T00:51:44.423Z,86.30
2022-11-27T00:54:12.156Z,86.38
2022-11-27T00:56:41.900Z,86.42
2022-11-27T00:59:11.089Z,86.44
2022-11-27T01:01:44.199Z,86.46
2022-11-27T01:04:16.863Z,86.50
2022-11-27T01:06:48.378Z,86.50
2022-11-27T01:09:16.945Z,86.51
2022-11-27T01:11:46.147Z,86.51
2022-11-27T01:14:19.218Z,86.48
2022-11-27T01:16:46.985Z,86.47
2022-11-27T01:19:17.870Z,86.45
2022-11-27T01:21:49.341Z,86.44
2022-11-27T01:24:20.707Z,86.44
2022-11-27T01:26:49.839Z,86.40
2022-11-27T01:29:17.592Z,86.43
2022-11-27T01:31:45.674Z,86.45
2022-11-27T01:34:19.399Z,86.44
2022-11-27T01:36:49.058Z,86.41
2022-11-27T01:39:21.567Z,86.41
2022-11-27T01:41:50.044Z,86.37
2022-11-27T01:44:28.435Z,86.33
2022-11-27T01:47:15.552Z,86.32
2022-11-27T01:49:53.861Z,86.27
2022-11-27T01:52:36.404Z,86.23
2022-11-27T01:55:20.802Z,86.24
2022-11-27T01:58:02.529Z,86.24
2022-11-27T02:00:30.324Z,86.24
2022-11-27T02:02:58.356Z,86.19
2022-11-27T02:05:33.564Z,86.17
2022-11-27T02:08:10.205Z,86.17
2022-11-27T02:10:53.822Z,86.14
2022-11-27T02:13:41.225Z,86.20
2022-11-27T02:16:37.527Z,86.19
2022-11-27T02:19:37.757Z,86.18
2022-11-27T02:22:33.841Z,86.23
2022-11-27T02:25:28.614Z,86.24
2022-11-27T02:28:20.073Z,86.21
2022-11-27T02:30:58.083Z,86.24
2022-11-27T02:33:34.656Z,86.19
2022-11-27T02:36:12.531Z,86.12
2022-11-27T02:39:01.932Z,86.13
2022-11-27T02:41:38.823Z,86.14
2022-11-27T02:44:12.994Z,86.16
2022-11-27T02:46:44.872Z,86.19
2022-11-27T02:49:19.167Z,86.18
2022-11-27T02:51:55.627Z,86.13
2022-11-27T02:54:31.656Z,86.14
2022-11-27T02:57:04.946Z,86.11
2022-11-27T02:59:37.234Z,86.08
2022-11-27T03:02:22.514Z,86.10
2022-11-27T03:04:56.511Z,86.13
2022-11-27T03:07:41.439Z,86.13
2022-11-27T03:10:47.224Z,86.14
2022-11-27T03:13:18.066Z,86.14
2022-11-27T03:16:05.572Z,86.14
2022-11-27T03:18:47.726Z,86.12
2022-11-27T03:21:43.704Z,86.11
2022-11-27T03:24:13.595Z,86.06
2022-11-27T03:26:44.780Z,86.08
2022-11-27T03:29:38.711Z,86.08
2022-11-27T03:32:12.964Z,86.06
2022-11-27T03:34:43.185Z,86.06
2022-11-27T03:37:11.705Z,86.08
2022-11-27T03:39:42.504Z,86.10
2022-11-27T03:42:41.657Z,86.15
2022-11-27T03:45:21.579Z,86.14
2022-11-27T03:48:14.479Z,86.17
2022-11-27T03:50:51.254Z,86.18
2022-11-27T03:53:47.481Z,86.22
2022-11-27T03:56:44.434Z,86.24
2022-11-27T03:59:20.554Z,86.27
2022-11-27T04:01:51.028Z,86.28
2022-11-27T04:04:19.013Z,86.32
2022-11-27T04:06:46.948Z,86.35
2022-11-27T04:09:15.471Z,86.42
2022-11-27T04:11:43.473Z,86.49
2022-11-27T04:14:11.436Z,86.53
2022-11-27T04:16:39.256Z,86.54
2022-11-27T04:19:09.725Z,86.57
2022-11-27T04:21:37.666Z,86.56
2022-11-27T04:24:05.534Z,86.48
2022-11-27T04:26:33.253Z,86.54
2022-11-27T04:29:01.058Z,86.45
2022-11-27T04:31:28.863Z,86.29
2022-11-27T04:33:56.626Z,86.24
2022-11-27T04:36:24.393Z,86.25
2022-11-27T04:38:52.106Z,86.24
2022-11-27T04:41:19.844Z,86.25
2022-11-27T04:43:47.550Z,86.28
2022-11-27T04:46:15.574Z,86.32
2022-11-27T04:48:46.439Z,86.33
2022-11-27T04:51:14.216Z,86.33
2022-11-27T04:53:45.044Z,86.34
2022-11-27T04:56:12.749Z,86.35
2022-11-27T04:58:40.982Z,86.33
2022-11-27T05:01:12.876Z,86.33
2022-11-27T05:03:40.900Z,86.33
2022-11-27T05:06:12.481Z,86.33
2022-11-27T05:08:40.295Z,86.31
2022-11-27T05:11:15.602Z,86.18
2022-11-27T05:13:47.326Z,86.11
2022-11-27T05:16:15.253Z,86.13
2022-11-27T05:18:46.523Z,86.13
2022-11-27T05:21:14.291Z,86.03
2022-11-27T05:23:42.011Z,86.03
2022-11-27T05:26:09.755Z,86.03
2022-11-27T05:28:37.491Z,86.04
2022-11-27T05:31:05.398Z,86.06
2022-11-27T05:33:38.463Z,86.07
2022-11-27T05:36:06.598Z,86.09
2022-11-27T05:38:34.321Z,86.07
2022-11-27T05:41:02.064Z,86.03
2022-11-27T05:43:30.021Z,86.03
2022-11-27T05:45:57.866Z,86.03
2022-11-27T05:48:25.639Z,86.01
2022-11-27T05:50:53.433Z,85.98
2022-11-27T05:53:21.127Z,85.91
2022-11-27T05:55:48.886Z,85.90
2022-11-27T05:58:20.304Z,85.89
2022-11-27T06:00:48.040Z,85.82
2022-11-27T06:03:15.804Z,85.84
2022-11-27T06:05:47.298Z,85.90
2022-11-27T06:08:15.078Z,85.92
2022-11-27T06:10:43.062Z,85.94
2022-11-27T06:13:16.597Z,85.96
2022-11-27T06:15:44.583Z,86.01
2022-11-27T06:18:16.458Z,85.97
2022-11-27T06:20:46.774Z,85.95
2022-11-27T06:23:19.103Z,85.98
2022-11-27T06:25:50.517Z,86.03
2022-11-27T06:28:18.493Z,86.10
2022-11-27T06:30:49.879Z,86.15
2022-11-27T06:33:17.840Z,86.18
2022-11-27T06:35:45.801Z,86.21
2022-11-27T06:38:13.542Z,86.24
2022-11-27T06:40:41.540Z,86.26
2022-11-27T06:43:09.275Z,86.29
2022-11-27T06:45:37.047Z,86.30
2022-11-27T06:48:05.078Z,86.28
2022-11-27T06:50:34.568Z,86.28
2022-11-27T06:53:02.314Z,86.29
2022-11-27T06:55:30.046Z,86.28
2022-11-27T06:57:57.998Z,86.27
2022-11-27T07:00:25.916Z,86.25
2022-11-27T07:02:59.451Z,86.25
2022-11-27T07:05:30.916Z,86.23
2022-11-27T07:08:02.657Z,86.19
2022-11-27T07:10:36.730Z,86.20
2022-11-27T07:13:04.616Z,86.20
2022-11-27T07:15:36.454Z,86.22
2022-11-27T07:18:04.445Z,86.26
2022-11-27T07:20:35.870Z,86.24
2022-11-27T07:23:03.590Z,86.24
2022-11-27T07:25:40.157Z,86.21
2022-11-27T07:28:08.110Z,86.20
2022-11-27T07:30:35.907Z,86.22
2022-11-27T07:33:07.470Z,86.21
2022-11-27T07:35:35.482Z,86.22
2022-11-27T07:38:03.216Z,86.26
2022-11-27T07:40:30.953Z,86.27
2022-11-27T07:43:00.447Z,86.26
2022-11-27T07:45:28.592Z,86.22
2022-11-27T07:47:59.177Z,86.24
2022-11-27T07:50:28.725Z,86.26
2022-11-27T07:52:56.456Z,86.28
2022-11-27T07:55:24.241Z,86.24
2022-11-27T07:57:51.955Z,86.23
2022-11-27T08:00:23.341Z,86.20
2022-11-27T08:02:51.136Z,86.19
2022-11-27T08:05:20.709Z,86.17
2022-11-27T08:07:55.389Z,86.15
2022-11-27T08:10:23.188Z,86.10
2022-11-27T08:12:51.168Z,86.05
2022-11-27T08:15:19.163Z,86.05
2022-11-27T08:17:46.918Z,86.01
2022-11-27T08:20:14.753Z,86.00
2022-11-27T08:22:42.538Z,85.96
2022-11-27T08:25:10.283Z,85.92
2022-11-27T08:27:38.093Z,85.93
2022-11-27T08:30:10.109Z,85.96
2022-11-27T08:32:41.676Z,85.97
2022-11-27T08:35:11.755Z,85.96
2022-11-27T08:37:44.187Z,85.99
2022-11-27T08:40:12.094Z,85.95
2022-11-27T08:42:40.079Z,85.93
2022-11-27T08:45:09.028Z,85.92
2022-11-27T08:47:36.900Z,85.91
2022-11-27T08:50:09.062Z,85.90
2022-11-27T08:52:36.924Z,85.82
2022-11-27T08:55:05.104Z,85.78
2022-11-27T08:57:32.915Z,85.76
2022-11-27T09:00:00.759Z,85.72
2022-11-27T09:02:28.562Z,85.65
2022-11-27T09:05:02.737Z,85.64
2022-11-27T09:07:30.524Z,85.59
2022-11-27T09:09:58.350Z,85.54
2022-11-27T09:12:29.911Z,85.49
2022-11-27T09:14:57.634Z,85.39
2022-11-27T09:17:25.429Z,85.31
2022-11-27T09:19:53.211Z,85.23
2022-11-27T09:22:20.983Z,85.20
2022-11-27T09:24:48.818Z,85.19
2022-11-27T09:27:16.512Z,85.15
2022-11-27T09:29:44.495Z,85.14
2022-11-27T09:32:12.834Z,85.07
2022-11-27T09:34:41.099Z,85.04
2022-11-27T09:37:09.423Z,84.92
2022-11-27T09:39:38.604Z,84.84
2022-11-27T09:42:18.791Z,84.75
2022-11-27T09:44:58.115Z,84.71
2022-11-27T09:47:39.814Z,84.69
2022-11-27T09:50:24.921Z,84.58
2022-11-27T09:53:01.590Z,84.51
2022-11-27T09:55:41.663Z,84.38
2022-11-27T09:58:38.096Z,84.25
2022-11-27T10:01:14.614Z,84.14
2022-11-27T10:03:48.161Z,84.07
2022-11-27T10:06:46.481Z,84.04
2022-11-27T10:09:49.298Z,84.09
2022-11-27T10:12:35.739Z,83.99
2022-11-27T10:15:19.416Z,83.85
2022-11-27T10:17:57.881Z,83.65
2022-11-27T10:20:34.076Z,83.73
2022-11-27T10:23:23.978Z,83.71
2022-11-27T10:25:59.043Z,83.70
2022-11-27T10:29:13.207Z,83.68
2022-11-27T10:31:47.057Z,83.54
2022-11-27T10:34:45.114Z,83.50
2022-11-27T10:37:13.133Z,83.47
2022-11-27T10:39:50.785Z,83.34
2022-11-27T10:42:44.672Z,83.26
2022-11-27T10:45:35.554Z,83.16
2022-11-27T10:48:03.733Z,83.21
2022-11-27T10:50:31.611Z,83.09
2022-11-27T10:53:12.106Z,82.85
2022-11-27T10:56:15.585Z,82.69
2022-11-27T10:59:06.061Z,82.57
2022-11-27T11:01:55.080Z,82.37
2022-11-27T11:04:38.717Z,82.18
2022-11-27T11:07:30.009Z,81.96
2022-11-27T11:09:57.900Z,81.85
2022-11-27T11:12:25.913Z,81.78
2022-11-27T11:15:02.346Z,81.71
2022-11-27T11:17:41.854Z,81.69
2022-11-27T11:20:26.103Z,81.60
2022-11-27T11:22:56.568Z,81.56
2022-11-27T11:25:24.543Z,81.52
2022-11-27T11:27:56.629Z,81.55
2022-11-27T11:30:29.939Z,81.58
2022-11-27T11:33:06.844Z,81.61
2022-11-27T11:35:39.129Z,81.60
2022-11-27T11:38:18.348Z,81.40
2022-11-27T11:41:05.410Z,81.33
2022-11-27T11:43:38.596Z,81.31
2022-11-27T11:46:17.482Z,81.28
2022-11-27T11:49:26.823Z,81.28
2022-11-27T11:52:27.676Z,81.29
2022-11-27T11:55:29.483Z,81.37
2022-11-27T11:58:12.522Z,81.29
2022-11-27T12:01:28.043Z,81.17
2022-11-27T12:03:59.607Z,81.08
2022-11-27T12:06:38.684Z,81.09
2022-11-27T12:09:38.205Z,81.14
2022-11-27T12:12:32.683Z,81.07
2022-11-27T12:15:08.948Z,81.01
2022-11-27T12:18:03.778Z,80.99
2022-11-27T12:20:39.746Z,80.95
2022-11-27T12:23:23.012Z,81.01
2022-11-27T12:26:07.921Z,80.94
2022-11-27T12:28:40.296Z,80.92
2022-11-27T12:31:29.991Z,80.89
2022-11-27T12:34:28.838Z,80.94
2022-11-27T12:37:14.743Z,80.92
2022-11-27T12:40:13.919Z,81.00
2022-11-27T12:43:20.255Z,80.92
2022-11-27T12:45:57.394Z,80.88
2022-11-27T12:48:36.790Z,80.95
2022-11-27T12:51:30.267Z,81.06
2022-11-27T12:54:14.541Z,81.16
2022-11-27T12:56:55.516Z,81.18
2022-11-27T12:59:40.520Z,81.23
2022-11-27T13:02:27.031Z,81.28
2022-11-27T13:05:24.835Z,81.27
2022-11-27T13:08:10.771Z,81.32
2022-11-27T13:10:53.439Z,81.36
2022-11-27T13:13:35.659Z,81.41
2022-11-27T13:16:11.147Z,81.47
2022-11-27T13:18:52.192Z,81.46
2022-11-27T13:21:30.182Z,81.46
2022-11-27T13:24:03.037Z,81.48
2022-11-27T13:26:48.804Z,81.51
2022-11-27T13:29:41.234Z,81.52
2022-11-27T13:32:19.911Z,81.61
2022-11-27T13:34:51.542Z,81.63
2022-11-27T13:37:41.344Z,81.65
2022-11-27T13:40:40.794Z,81.68
2022-11-27T13:43:40.712Z,81.72
2022-11-27T13:46:25.272Z,81.72
2022-11-27T13:49:03.484Z,81.74
2022-11-27T13:51:39.468Z,81.72
2022-11-27T13:54:17.129Z,81.72
2022-11-27T13:56:46.322Z,81.77
2022-11-27T13:59:25.561Z,81.79
2022-11-27T14:02:07.145Z,81.82
2022-11-27T14:04:35.892Z,81.84
2022-11-27T14:07:13.742Z,81.85
2022-11-27T14:09:47.175Z,81.86
2022-11-27T14:12:33.170Z,81.87
2022-11-27T14:15:07.967Z,81.88
2022-11-27T14:17:42.493Z,81.89
2022-11-27T14:20:11.955Z,81.90
2022-11-27T14:23:14.744Z,81.92
2022-11-27T14:25:42.672Z,81.91
2022-11-27T14:28:22.041Z,81.94
2022-11-27T14:30:55.660Z,82.00
2022-11-27T14:33:27.651Z,82.03
2022-11-27T14:35:58.030Z,82.06
2022-11-27T14:38:29.048Z,82.13
2022-11-27T14:41:20.289Z,82.20
2022-11-27T14:44:15.003Z,82.26
2022-11-27T14:46:42.919Z,82.30
2022-11-27T14:49:26.217Z,82.34
2022-11-27T14:52:01.322Z,82.32
2022-11-27T14:54:35.644Z,82.30
2022-11-27T14:57:08.774Z,82.28
2022-11-27T14:59:36.526Z,82.28
2022-11-27T15:02:07.088Z,82.28
2022-11-27T15:04:39.143Z,82.24
2022-11-27T15:07:29.510Z,82.22
2022-11-27T15:10:05.187Z,82.23
2022-11-27T15:12:50.136Z,82.21
2022-11-27T15:15:30.305Z,82.25
2022-11-27T15:18:00.839Z,82.34
2022-11-27T15:20:42.034Z,82.41
2022-11-27T15:23:28.885Z,82.42
2022-11-27T15:25:59.930Z,82.44
2022-11-27T15:28:43.438Z,82.46
2022-11-27T15:31:35.244Z,82.47
2022-11-27T15:34:23.712Z,82.50
2022-11-27T15:37:01.677Z,82.55
2022-11-27T15:39:52.703Z,82.63
2022-11-27T15:42:24.684Z,82.71
2022-11-27T15:44:58.353Z,82.78
2022-11-27T15:47:37.339Z,82.80
2022-11-27T15:50:15.115Z,82.81
2022-11-27T15:52:44.959Z,82.86
2022-11-27T15:55:18.921Z,82.85
2022-11-27T15:57:47.199Z,82.82
2022-11-27T16:00:22.141Z,82.84
2022-11-27T16:02:50.052Z,82.82
2022-11-27T16:05:22.034Z,82.93
2022-11-27T16:07:54.727Z,83.04
2022-11-27T16:10:24.090Z,83.13
2022-11-27T16:12:57.454Z,83.18
2022-11-27T16:15:30.041Z,83.13
2022-11-27T16:18:01.209Z,83.17
2022-11-27T16:20:28.962Z,83.22
2022-11-27T16:22:56.861Z,83.24
2022-11-27T16:25:25.811Z,83.22
2022-11-27T16:27:59.389Z,83.24
2022-11-27T16:30:34.810Z,83.26
2022-11-27T16:33:03.225Z,83.27
2022-11-27T16:35:30.969Z,83.30
2022-11-27T16:37:58.995Z,83.32
2022-11-27T16:40:27.529Z,83.33
2022-11-27T16:42:55.278Z,83.35
2022-11-27T16:45:23.107Z,83.36
2022-11-27T16:47:51.229Z,83.33
2022-11-27T16:50:19.056Z,83.30
2022-11-27T16:52:53.986Z,83.30
2022-11-27T16:55:23.167Z,83.28
2022-11-27T16:57:51.568Z,83.26
2022-11-27T17:00:19.684Z,83.25
2022-11-27T17:02:47.492Z,83.25
2022-11-27T17:05:15.404Z,83.24
2022-11-27T17:07:43.185Z,83.23
2022-11-27T17:10:11.046Z,83.26
2022-11-27T17:12:39.279Z,83.29
2022-11-27T17:15:07.611Z,83.30
2022-11-27T17:17:40.096Z,83.30
2022-11-27T17:20:08.878Z,83.28
2022-11-27T17:22:36.731Z,83.30
2022-11-27T17:25:05.830Z,83.30
2022-11-27T17:27:34.814Z,83.28
2022-11-27T17:30:02.577Z,83.29
2022-11-27T17:32:30.465Z,83.30
2022-11-27T17:34:58.208Z,83.31
2022-11-27T17:37:26.027Z,83.32
2022-11-27T17:39:54.022Z,83.30
2022-11-27T17:42:22.961Z,83.30
2022-11-27T17:44:52.349Z,83.31
2022-11-27T17:47:20.151Z,83.27
2022-11-27T17:49:47.948Z,83.27
2022-11-27T17:52:15.750Z,83.27
2022-11-27T17:54:43.479Z,83.26
2022-11-27T17:57:11.239Z,83.26
2022-11-27T17:59:39.271Z,83.27
2022-11-27T18:02:12.463Z,83.33
2022-11-27T18:04:41.775Z,83.34
2022-11-27T18:07:12.200Z,83.33
2022-11-27T18:09:40.448Z,83.40
2022-11-27T18:12:09.138Z,83.45
2022-11-27T18:14:37.015Z,83.46
2022-11-27T18:17:05.298Z,83.50
2022-11-27T18:19:34.119Z,83.52
2022-11-27T18:22:03.330Z,83.53
2022-11-27T18:24:31.080Z,83.63
2022-11-27T18:27:14.312Z,83.76
2022-11-27T18:29:45.476Z,83.80
2022-11-27T18:32:17.607Z,83.70
2022-11-27T18:34:46.588Z,83.68
2022-11-27T18:37:14.423Z,83.74
2022-11-27T18:39:45.252Z,83.83
2022-11-27T18:42:15.362Z,83.94
2022-11-27T18:44:45.397Z,84.03
2022-11-27T18:47:16.203Z,84.01
2022-11-27T18:49:45.220Z,84.02
2022-11-27T18:52:14.228Z,84.15
2022-11-27T18:54:44.211Z,84.22
2022-11-27T18:57:11.991Z,84.30
2022-11-27T18:59:44.371Z,84.32
2022-11-27T19:02:40.584Z,84.38
2022-11-27T19:05:09.905Z,84.37
2022-11-27T19:07:38.293Z,84.36
2022-11-27T19:10:07.317Z,84.33
2022-11-27T19:12:37.787Z,84.36
2022-11-27T19:15:06.071Z,84.40
2022-11-27T19:17:33.915Z,84.51
2022-11-27T19:20:01.886Z,84.61
2022-11-27T19:22:29.661Z,84.66
2022-11-27T19:24:57.473Z,84.73
2022-11-27T19:27:25.576Z,84.76
2022-11-27T19:29:53.889Z,84.72
2022-11-27T19:32:21.763Z,84.73
2022-11-27T19:34:50.894Z,84.72
2022-11-27T19:37:33.166Z,84.75
2022-11-27T19:40:02.196Z,84.76
2022-11-27T19:42:31.448Z,84.75
2022-11-27T19:44:59.252Z,84.76
2022-11-27T19:47:27.035Z,84.80
2022-11-27T19:49:56.040Z,84.78
2022-11-27T19:52:23.796Z,84.77
2022-11-27T19:54:51.652Z,84.83
2022-11-27T19:57:19.463Z,84.85
2022-11-27T19:59:47.318Z,84.89
2022-11-27T20:02:15.457Z,84.90
2022-11-27T20:04:44.163Z,84.84
2022-11-27T20:07:12.364Z,84.82
2022-11-27T20:09:40.163Z,84.81
2022-11-27T20:12:07.948Z,84.88
2022-11-27T20:14:36.053Z,84.93
2022-11-27T20:17:03.973Z,84.89
2022-11-27T20:19:31.859Z,84.81
2022-11-27T20:21:59.752Z,84.81
2022-11-27T20:24:27.540Z,84.87
2022-11-27T20:26:55.456Z,84.99
2022-11-27T20:29:23.265Z,85.09
2022-11-27T20:31:51.284Z,85.18
2022-11-27T20:34:22.338Z,85.25
2022-11-27T20:36:50.410Z,85.31
2022-11-27T20:39:21.720Z,85.37
2022-11-27T20:41:51.839Z,85.41
2022-11-27T20:44:22.522Z,85.45
2022-11-27T20:46:50.728Z,85.51
2022-11-27T20:49:18.564Z,85.54
2022-11-27T20:51:49.119Z,85.57
2022-11-27T20:54:18.273Z,85.58
2022-11-27T20:56:46.801Z,85.56
2022-11-27T20:59:14.709Z,85.57
2022-11-27T21:01:42.649Z,85.55
2022-11-27T21:04:19.897Z,85.56
2022-11-27T21:06:48.236Z,85.55
2022-11-27T21:09:17.090Z,85.52
2022-11-27T21:11:44.990Z,85.49
2022-11-27T21:14:14.917Z,85.48
2022-11-27T21:16:48.274Z,85.48
2022-11-27T21:19:18.550Z,85.47
2022-11-27T21:21:47.639Z,85.48
2022-11-27T21:24:15.705Z,85.46
2022-11-27T21:26:43.861Z,85.42
2022-11-27T21:29:13.217Z,85.28
2022-11-27T21:31:46.518Z,85.13
2022-11-27T21:34:15.802Z,85.12
2022-11-27T21:36:43.717Z,85.22
2022-11-27T21:39:20.803Z,85.35
2022-11-27T21:41:51.361Z,85.45
2022-11-27T21:44:20.738Z,85.51
2022-11-27T21:46:50.539Z,85.56
2022-11-27T21:49:21.018Z,85.60
2022-11-27T21:51:54.513Z,85.52
2022-11-27T21:54:23.049Z,85.52
2022-11-27T21:56:52.799Z,85.56
2022-11-27T21:59:21.215Z,85.63
2022-11-27T22:01:49.721Z,85.67
2022-11-27T22:04:18.680Z,85.71
2022-11-27T22:06:47.135Z,85.75
2022-11-27T22:09:16.223Z,85.79
2022-11-27T22:11:46.714Z,85.83
2022-11-27T22:14:16.151Z,85.84
2022-11-27T22:16:47.126Z,85.86
2022-11-27T22:19:16.000Z,85.85
2022-11-27T22:21:44.886Z,85.83
2022-11-27T22:24:19.030Z,85.81
2022-11-27T22:26:49.166Z,85.80
2022-11-27T22:29:17.041Z,85.81
2022-11-27T22:31:44.957Z,85.81
2022-11-27T22:34:13.502Z,85.81
2022-11-27T22:36:41.889Z,85.82
2022-11-27T22:39:09.919Z,85.79
2022-11-27T22:41:40.183Z,85.78
2022-11-27T22:44:11.066Z,85.78
2022-11-27T22:46:41.523Z,85.75
2022-11-27T22:49:12.272Z,85.76
2022-11-27T22:51:41.793Z,85.76
2022-11-27T22:54:13.902Z,85.74
2022-11-27T22:56:41.766Z,85.73
2022-11-27T23:01:58.365Z,85.71
2022-11-27T23:04:26.758Z,85.72
2022-11-27T23:06:54.591Z,85.71
2022-11-27T23:09:22.585Z,85.73
2022-11-27T23:11:50.456Z,85.72
2022-11-27T23:14:19.063Z,85.72
2022-11-27T23:16:46.984Z,85.70
2022-11-27T23:19:15.336Z,85.69
2022-11-27T23:21:43.143Z,85.64
2022-11-27T23:24:15.629Z,85.62
2022-11-27T23:26:44.185Z,85.59
2022-11-27T23:29:12.909Z,85.58
2022-11-27T23:31:42.832Z,85.56
2022-11-27T23:34:15.466Z,85.54
2022-11-27T23:36:43.973Z,85.54
2022-11-27T23:39:13.926Z,85.47
2022-11-27T23:41:43.044Z,85.44
2022-11-27T23:44:11.218Z,85.45
2022-11-27T23:46:39.406Z,85.48
2022-11-27T23:49:07.300Z,85.53
2022-11-27T23:51:35.697Z,85.54
2022-11-27T23:54:08.400Z,85.57
2022-11-27T23:56:38.326Z,85.61
2022-11-27T23:59:06.173Z,85.63
